DTGRO EDHL-EDDB
Flight info
| Callsign | DTGRO |
|---|---|
| Flight time | 1h 13m |
| Altitude | 7000 |
| Route | VFR |
| Aircraft | C172/L-SFG/C |
Departure
| Time | 2026-05-08 07:34 |
|---|---|
| Airport | Lübeck Blankensee Airport (EDHL) |
Arrival
| Time | 2026-05-08 08:47 |
|---|---|
| Airport | Berlin Brandenburg Airport (EDDB) |
| Time | Latitude | Longitude | Altitude | Speed | Heading |
|---|---|---|---|---|---|
| 2026-05-08 07:17 | 53.80552 | 10.70461 | 56 ft | 0 kts | 134° |
| 2026-05-08 07:30 | 53.80551 | 10.70464 | 56 ft | 2 kts | 126° |
| 2026-05-08 07:31 | 53.80586 | 10.70470 | 56 ft | 11 kts | 308° |
| 2026-05-08 07:31 | 53.80561 | 10.70345 | 56 ft | 18 kts | 200° |
| 2026-05-08 07:31 | 53.80449 | 10.70443 | 56 ft | 18 kts | 150° |
| 2026-05-08 07:31 | 53.80407 | 10.70513 | 56 ft | 0 kts | 154° |
| 2026-05-08 07:32 | 53.80405 | 10.70515 | 56 ft | 2 kts | 154° |
| 2026-05-08 07:33 | 53.80372 | 10.70532 | 52 ft | 9 kts | 150° |
| 2026-05-08 07:33 | 53.80301 | 10.70624 | 55 ft | 16 kts | 133° |
| 2026-05-08 07:33 | 53.80334 | 10.70889 | 52 ft | 45 kts | 70° |
| 2026-05-08 07:33 | 53.80486 | 10.71579 | 140 ft | 70 kts | 69° |
| 2026-05-08 07:34 | 53.80671 | 10.72348 | 367 ft | 69 kts | 89° |
| 2026-05-08 07:34 | 53.80436 | 10.72992 | 629 ft | 69 kts | 141° |
| 2026-05-08 07:34 | 53.79960 | 10.73268 | 822 ft | 78 kts | 176° |
| 2026-05-08 07:34 | 53.79438 | 10.73364 | 1126 ft | 70 kts | 161° |
| 2026-05-08 07:35 | 53.78951 | 10.73528 | 1421 ft | 71 kts | 159° |
| 2026-05-08 07:35 | 53.78448 | 10.73841 | 1628 ft | 88 kts | 151° |
| 2026-05-08 07:35 | 53.77741 | 10.74078 | 1757 ft | 109 kts | 168° |
| 2026-05-08 07:35 | 53.76997 | 10.74015 | 2117 ft | 102 kts | 178° |
| 2026-05-08 07:36 | 53.76309 | 10.73838 | 2383 ft | 98 kts | 181° |
| 2026-05-08 07:36 | 53.75649 | 10.73690 | 2562 ft | 100 kts | 175° |
| 2026-05-08 07:36 | 53.74961 | 10.73652 | 2770 ft | 96 kts | 165° |
| 2026-05-08 07:36 | 53.74310 | 10.73777 | 3011 ft | 91 kts | 166° |
| 2026-05-08 07:37 | 53.73646 | 10.73832 | 3179 ft | 102 kts | 168° |
| 2026-05-08 07:37 | 53.72931 | 10.73900 | 3464 ft | 101 kts | 167° |
| 2026-05-08 07:37 | 53.72226 | 10.74001 | 3663 ft | 103 kts | 165° |
| 2026-05-08 07:37 | 53.71502 | 10.74159 | 3812 ft | 105 kts | 165° |
| 2026-05-08 07:38 | 53.70839 | 10.74316 | 4153 ft | 93 kts | 162° |
| 2026-05-08 07:38 | 53.70151 | 10.74251 | 4394 ft | 98 kts | 173° |
| 2026-05-08 07:38 | 53.69460 | 10.74336 | 4506 ft | 104 kts | 159° |
| 2026-05-08 07:38 | 53.68840 | 10.74771 | 4741 ft | 87 kts | 135° |
| 2026-05-08 07:39 | 53.68399 | 10.75349 | 5018 ft | 80 kts | 129° |
| 2026-05-08 07:39 | 53.67959 | 10.75968 | 5152 ft | 88 kts | 141° |
| 2026-05-08 07:39 | 53.67440 | 10.76506 | 5342 ft | 87 kts | 139° |
| 2026-05-08 07:39 | 53.66935 | 10.77084 | 5541 ft | 87 kts | 134° |
| 2026-05-08 07:40 | 53.66465 | 10.77696 | 5745 ft | 85 kts | 131° |
| 2026-05-08 07:40 | 53.66043 | 10.78380 | 5971 ft | 80 kts | 128° |
| 2026-05-08 07:40 | 53.65666 | 10.79042 | 6202 ft | 78 kts | 129° |
| 2026-05-08 07:40 | 53.65278 | 10.79712 | 6351 ft | 78 kts | 125° |
| 2026-05-08 07:41 | 53.64961 | 10.80403 | 6547 ft | 76 kts | 121° |
| 2026-05-08 07:41 | 53.64711 | 10.81192 | 6721 ft | 74 kts | 110° |
| 2026-05-08 07:41 | 53.64566 | 10.82028 | 6859 ft | 77 kts | 97° |
| 2026-05-08 07:41 | 53.64564 | 10.82933 | 7000 ft | 80 kts | 85° |
| 2026-05-08 07:42 | 53.64579 | 10.83955 | 6977 ft | 98 kts | 89° |
| 2026-05-08 07:42 | 53.64572 | 10.85090 | 7106 ft | 96 kts | 98° |
| 2026-05-08 07:42 | 53.64372 | 10.86178 | 7197 ft | 99 kts | 107° |
| 2026-05-08 07:42 | 53.64161 | 10.87332 | 7190 ft | 107 kts | 113° |
| 2026-05-08 07:43 | 53.63772 | 10.88460 | 7180 ft | 113 kts | 118° |
| 2026-05-08 07:43 | 53.63334 | 10.89595 | 7110 ft | 119 kts | 126° |
| 2026-05-08 07:43 | 53.62733 | 10.90596 | 6978 ft | 125 kts | 136° |
| 2026-05-08 07:43 | 53.62132 | 10.91502 | 7024 ft | 113 kts | 134° |
| 2026-05-08 07:44 | 53.61537 | 10.92377 | 6958 ft | 112 kts | 135° |
| 2026-05-08 07:44 | 53.60984 | 10.93283 | 6835 ft | 116 kts | 126° |
| 2026-05-08 07:44 | 53.60473 | 10.94355 | 6770 ft | 111 kts | 127° |
| 2026-05-08 07:44 | 53.60033 | 10.95345 | 6806 ft | 103 kts | 115° |
| 2026-05-08 07:45 | 53.59732 | 10.96319 | 6954 ft | 90 kts | 112° |
| 2026-05-08 07:45 | 53.59474 | 10.97326 | 6946 ft | 95 kts | 113° |
| 2026-05-08 07:45 | 53.59196 | 10.98361 | 6929 ft | 98 kts | 113° |
| 2026-05-08 07:45 | 53.58853 | 10.99322 | 6999 ft | 94 kts | 121° |
| 2026-05-08 07:46 | 53.58426 | 11.00190 | 6981 ft | 99 kts | 130° |
| 2026-05-08 07:46 | 53.57965 | 11.01059 | 6962 ft | 101 kts | 128° |
| 2026-05-08 07:46 | 53.57495 | 11.01945 | 6968 ft | 100 kts | 128° |
| 2026-05-08 07:46 | 53.57006 | 11.02769 | 6965 ft | 102 kts | 133° |
| 2026-05-08 07:47 | 53.56531 | 11.03592 | 7122 ft | 92 kts | 130° |
| 2026-05-08 07:47 | 53.56025 | 11.04388 | 7034 ft | 107 kts | 131° |
| 2026-05-08 07:47 | 53.55500 | 11.05248 | 7111 ft | 103 kts | 134° |
| 2026-05-08 07:47 | 53.54979 | 11.06118 | 6971 ft | 112 kts | 128° |
| 2026-05-08 07:48 | 53.54433 | 11.07047 | 6964 ft | 108 kts | 131° |
| 2026-05-08 07:48 | 53.53900 | 11.07935 | 6976 ft | 110 kts | 131° |
| 2026-05-08 07:48 | 53.53566 | 11.08494 | 6972 ft | 108 kts | 131° |
| 2026-05-08 07:49 | 53.53130 | 11.09221 | 6975 ft | 106 kts | 133° |
| 2026-05-08 07:49 | 53.52604 | 11.10092 | 6976 ft | 106 kts | 131° |
| 2026-05-08 07:49 | 53.52076 | 11.10963 | 6982 ft | 106 kts | 131° |
| 2026-05-08 07:49 | 53.51538 | 11.11855 | 6984 ft | 111 kts | 131° |
| 2026-05-08 07:50 | 53.50981 | 11.12781 | 6973 ft | 114 kts | 131° |
| 2026-05-08 07:50 | 53.50423 | 11.13719 | 6974 ft | 113 kts | 131° |
| 2026-05-08 07:50 | 53.49872 | 11.14640 | 6981 ft | 111 kts | 131° |
| 2026-05-08 07:50 | 53.49316 | 11.15572 | 6990 ft | 116 kts | 131° |
| 2026-05-08 07:51 | 53.48739 | 11.16540 | 6981 ft | 117 kts | 132° |
| 2026-05-08 07:51 | 53.48161 | 11.17502 | 6968 ft | 115 kts | 132° |
| 2026-05-08 07:51 | 53.47604 | 11.18423 | 6972 ft | 113 kts | 132° |
| 2026-05-08 07:51 | 53.47143 | 11.19449 | 7008 ft | 109 kts | 111° |
| 2026-05-08 07:52 | 53.46848 | 11.20643 | 6984 ft | 111 kts | 110° |
| 2026-05-08 07:52 | 53.46483 | 11.21792 | 7022 ft | 114 kts | 128° |
| 2026-05-08 07:52 | 53.45948 | 11.22870 | 6989 ft | 122 kts | 127° |
| 2026-05-08 07:52 | 53.45412 | 11.23908 | 6979 ft | 116 kts | 128° |
| 2026-05-08 07:53 | 53.44880 | 11.24908 | 6979 ft | 113 kts | 129° |
| 2026-05-08 07:53 | 53.44357 | 11.25883 | 6975 ft | 112 kts | 129° |
| 2026-05-08 07:53 | 53.43817 | 11.26882 | 6980 ft | 118 kts | 129° |
| 2026-05-08 07:53 | 53.43265 | 11.27899 | 6962 ft | 118 kts | 129° |
| 2026-05-08 07:54 | 53.42718 | 11.28894 | 6969 ft | 115 kts | 130° |
| 2026-05-08 07:54 | 53.42173 | 11.29881 | 6974 ft | 116 kts | 131° |
| 2026-05-08 07:54 | 53.41625 | 11.30867 | 6966 ft | 114 kts | 129° |
| 2026-05-08 07:54 | 53.41090 | 11.31833 | 6966 ft | 112 kts | 129° |
| 2026-05-08 07:55 | 53.40639 | 11.32867 | 6974 ft | 109 kts | 101° |
| 2026-05-08 07:55 | 53.40605 | 11.33720 | 6964 ft | 108 kts | 95° |
| 2026-05-08 07:55 | 53.40204 | 11.35222 | 6972 ft | 109 kts | 122° |
| 2026-05-08 07:55 | 53.39771 | 11.36260 | 6972 ft | 109 kts | 123° |
| 2026-05-08 07:56 | 53.39474 | 11.36937 | 6971 ft | 109 kts | 124° |
| 2026-05-08 07:56 | 53.38851 | 11.38315 | 6963 ft | 113 kts | 124° |
| 2026-05-08 07:56 | 53.38532 | 11.39009 | 6957 ft | 116 kts | 125° |
| 2026-05-08 07:56 | 53.38049 | 11.40055 | 6968 ft | 112 kts | 124° |
| 2026-05-08 07:57 | 53.37575 | 11.41078 | 6964 ft | 111 kts | 125° |
| 2026-05-08 07:57 | 53.37105 | 11.42090 | 6968 ft | 110 kts | 125° |
| 2026-05-08 07:57 | 53.36629 | 11.43114 | 6959 ft | 115 kts | 125° |
| 2026-05-08 07:57 | 53.36144 | 11.44154 | 6989 ft | 113 kts | 125° |
| 2026-05-08 07:58 | 53.35638 | 11.45240 | 6978 ft | 121 kts | 126° |
| 2026-05-08 07:58 | 53.35123 | 11.46344 | 6976 ft | 120 kts | 124° |
| 2026-05-08 07:58 | 53.34612 | 11.47440 | 6971 ft | 118 kts | 125° |
| 2026-05-08 07:58 | 53.34114 | 11.48504 | 6960 ft | 114 kts | 125° |
| 2026-05-08 07:59 | 53.33629 | 11.49544 | 6970 ft | 114 kts | 125° |
| 2026-05-08 07:59 | 53.33135 | 11.50607 | 6975 ft | 117 kts | 126° |
| 2026-05-08 07:59 | 53.32632 | 11.51679 | 6967 ft | 117 kts | 125° |
| 2026-05-08 07:59 | 53.32140 | 11.52733 | 6964 ft | 113 kts | 125° |
| 2026-05-08 08:00 | 53.31658 | 11.53769 | 6954 ft | 112 kts | 125° |
| 2026-05-08 08:00 | 53.31177 | 11.54797 | 6964 ft | 111 kts | 125° |
| 2026-05-08 08:00 | 53.30706 | 11.55806 | 6966 ft | 110 kts | 125° |
| 2026-05-08 08:00 | 53.30222 | 11.56839 | 6963 ft | 113 kts | 126° |
| 2026-05-08 08:01 | 53.29743 | 11.57864 | 6973 ft | 111 kts | 125° |
| 2026-05-08 08:01 | 53.29270 | 11.58874 | 6963 ft | 110 kts | 125° |
| 2026-05-08 08:01 | 53.28800 | 11.59880 | 6967 ft | 110 kts | 125° |
| 2026-05-08 08:01 | 53.28327 | 11.60891 | 6967 ft | 113 kts | 126° |
| 2026-05-08 08:02 | 53.27833 | 11.61939 | 6981 ft | 117 kts | 125° |
| 2026-05-08 08:02 | 53.27335 | 11.63000 | 6981 ft | 115 kts | 124° |
| 2026-05-08 08:02 | 53.26841 | 11.64053 | 6979 ft | 115 kts | 126° |
| 2026-05-08 08:02 | 53.26340 | 11.65118 | 6979 ft | 118 kts | 126° |
| 2026-05-08 08:03 | 53.25837 | 11.66187 | 6969 ft | 115 kts | 126° |
| 2026-05-08 08:03 | 53.25351 | 11.67222 | 6969 ft | 112 kts | 126° |
| 2026-05-08 08:03 | 53.24872 | 11.68244 | 6957 ft | 111 kts | 126° |
| 2026-05-08 08:03 | 53.24396 | 11.69257 | 6958 ft | 111 kts | 125° |
| 2026-05-08 08:04 | 53.23928 | 11.70254 | 6957 ft | 112 kts | 125° |
| 2026-05-08 08:04 | 53.23448 | 11.71280 | 6961 ft | 111 kts | 126° |
| 2026-05-08 08:04 | 53.22966 | 11.72291 | 6967 ft | 111 kts | 126° |
| 2026-05-08 08:04 | 53.22476 | 11.73336 | 6978 ft | 117 kts | 126° |
| 2026-05-08 08:05 | 53.21973 | 11.74400 | 6980 ft | 115 kts | 125° |
| 2026-05-08 08:05 | 53.21479 | 11.75447 | 6973 ft | 115 kts | 127° |
| 2026-05-08 08:05 | 53.20981 | 11.76502 | 6968 ft | 115 kts | 126° |
| 2026-05-08 08:05 | 53.20484 | 11.77555 | 6970 ft | 117 kts | 125° |
| 2026-05-08 08:06 | 53.19988 | 11.78607 | 6967 ft | 114 kts | 127° |
| 2026-05-08 08:06 | 53.19426 | 11.79799 | 6976 ft | 113 kts | 126° |
| 2026-05-08 08:06 | 53.18434 | 11.81896 | 6968 ft | 116 kts | 126° |
| 2026-05-08 08:06 | 53.17455 | 11.83968 | 6951 ft | 112 kts | 126° |
| 2026-05-08 08:07 | 53.16494 | 11.86003 | 6958 ft | 111 kts | 125° |
| 2026-05-08 08:07 | 53.15535 | 11.88029 | 6976 ft | 115 kts | 127° |
| 2026-05-08 08:07 | 53.14534 | 11.90136 | 6963 ft | 118 kts | 126° |
| 2026-05-08 08:07 | 53.13531 | 11.92246 | 6956 ft | 114 kts | 126° |
| 2026-05-08 08:08 | 53.12558 | 11.94298 | 6956 ft | 112 kts | 127° |
| 2026-05-08 08:08 | 53.11597 | 11.96323 | 6977 ft | 112 kts | 125° |
| 2026-05-08 08:08 | 53.10612 | 11.98392 | 6948 ft | 112 kts | 126° |
| 2026-05-08 08:08 | 53.09628 | 12.00459 | 6973 ft | 118 kts | 126° |
| 2026-05-08 08:09 | 53.08614 | 12.02586 | 6952 ft | 115 kts | 125° |
| 2026-05-08 08:09 | 53.08109 | 12.03646 | 6958 ft | 114 kts | 126° |
| 2026-05-08 08:09 | 53.07618 | 12.04677 | 6958 ft | 113 kts | 126° |
| 2026-05-08 08:09 | 53.07131 | 12.05699 | 6960 ft | 113 kts | 126° |
| 2026-05-08 08:10 | 53.06640 | 12.06726 | 6958 ft | 113 kts | 124° |
| 2026-05-08 08:10 | 53.06143 | 12.07772 | 6957 ft | 116 kts | 127° |
| 2026-05-08 08:10 | 53.05633 | 12.08835 | 6973 ft | 119 kts | 127° |
| 2026-05-08 08:10 | 53.05099 | 12.09897 | 6954 ft | 121 kts | 136° |
| 2026-05-08 08:11 | 53.04449 | 12.10735 | 6952 ft | 118 kts | 141° |
| 2026-05-08 08:11 | 53.03798 | 12.11586 | 6978 ft | 119 kts | 139° |
| 2026-05-08 08:11 | 53.03140 | 12.12425 | 7016 ft | 119 kts | 139° |
| 2026-05-08 08:11 | 53.02522 | 12.13364 | 7019 ft | 121 kts | 133° |
| 2026-05-08 08:12 | 53.01932 | 12.14368 | 7001 ft | 123 kts | 133° |
| 2026-05-08 08:12 | 53.01331 | 12.15389 | 7015 ft | 123 kts | 132° |
| 2026-05-08 08:12 | 53.00745 | 12.16428 | 6935 ft | 126 kts | 134° |
| 2026-05-08 08:12 | 53.00090 | 12.17366 | 6909 ft | 124 kts | 138° |
| 2026-05-08 08:13 | 52.98910 | 12.18945 | 6882 ft | 124 kts | 143° |
| 2026-05-08 08:13 | 52.97503 | 12.20659 | 6828 ft | 122 kts | 143° |
| 2026-05-08 08:13 | 52.96224 | 12.22277 | 6833 ft | 117 kts | 138° |
| 2026-05-08 08:13 | 52.95608 | 12.23166 | 6861 ft | 117 kts | 133° |
| 2026-05-08 08:14 | 52.95055 | 12.24222 | 6730 ft | 123 kts | 129° |
| 2026-05-08 08:14 | 52.94566 | 12.25283 | 6866 ft | 114 kts | 124° |
| 2026-05-08 08:14 | 52.94110 | 12.26308 | 6934 ft | 107 kts | 125° |
| 2026-05-08 08:14 | 52.93642 | 12.27335 | 6961 ft | 114 kts | 126° |
| 2026-05-08 08:15 | 52.93151 | 12.28405 | 6969 ft | 117 kts | 126° |
| 2026-05-08 08:15 | 52.92637 | 12.29471 | 6925 ft | 120 kts | 129° |
| 2026-05-08 08:15 | 52.92123 | 12.30546 | 6886 ft | 118 kts | 124° |
| 2026-05-08 08:15 | 52.91651 | 12.31639 | 6912 ft | 116 kts | 124° |
| 2026-05-08 08:16 | 52.91172 | 12.32728 | 6907 ft | 119 kts | 126° |
| 2026-05-08 08:16 | 52.90685 | 12.33802 | 6964 ft | 112 kts | 127° |
| 2026-05-08 08:16 | 52.90190 | 12.34857 | 6873 ft | 121 kts | 128° |
| 2026-05-08 08:16 | 52.89651 | 12.35903 | 6944 ft | 117 kts | 128° |
| 2026-05-08 08:17 | 52.89134 | 12.36931 | 6949 ft | 116 kts | 129° |
| 2026-05-08 08:17 | 52.88568 | 12.37954 | 6919 ft | 119 kts | 132° |
| 2026-05-08 08:17 | 52.88080 | 12.39000 | 6952 ft | 115 kts | 122° |
| 2026-05-08 08:17 | 52.87562 | 12.40097 | 6912 ft | 119 kts | 131° |
| 2026-05-08 08:18 | 52.86980 | 12.41039 | 6858 ft | 121 kts | 133° |
| 2026-05-08 08:18 | 52.86339 | 12.41948 | 6782 ft | 123 kts | 139° |
| 2026-05-08 08:18 | 52.85697 | 12.42890 | 6752 ft | 120 kts | 136° |
| 2026-05-08 08:18 | 52.85070 | 12.43686 | 6892 ft | 111 kts | 142° |
| 2026-05-08 08:19 | 52.84452 | 12.44490 | 6867 ft | 117 kts | 135° |
| 2026-05-08 08:19 | 52.83870 | 12.45419 | 6910 ft | 112 kts | 135° |
| 2026-05-08 08:19 | 52.83316 | 12.46288 | 6964 ft | 109 kts | 136° |
| 2026-05-08 08:19 | 52.82755 | 12.47172 | 6928 ft | 114 kts | 134° |
| 2026-05-08 08:20 | 52.82186 | 12.48046 | 6936 ft | 114 kts | 134° |
| 2026-05-08 08:20 | 52.81615 | 12.48985 | 6875 ft | 119 kts | 134° |
| 2026-05-08 08:20 | 52.81044 | 12.49963 | 6873 ft | 116 kts | 133° |
| 2026-05-08 08:20 | 52.80527 | 12.50980 | 6859 ft | 115 kts | 126° |
| 2026-05-08 08:21 | 52.80056 | 12.52057 | 6841 ft | 116 kts | 124° |
| 2026-05-08 08:21 | 52.79611 | 12.53114 | 6896 ft | 111 kts | 124° |
| 2026-05-08 08:21 | 52.79171 | 12.54212 | 6835 ft | 116 kts | 120° |
| 2026-05-08 08:21 | 52.78790 | 12.55418 | 6706 ft | 124 kts | 111° |
| 2026-05-08 08:22 | 52.78476 | 12.56623 | 6871 ft | 106 kts | 111° |
| 2026-05-08 08:22 | 52.78147 | 12.57740 | 6892 ft | 109 kts | 120° |
| 2026-05-08 08:22 | 52.77728 | 12.58790 | 6978 ft | 106 kts | 128° |
| 2026-05-08 08:22 | 52.77198 | 12.59631 | 6962 ft | 113 kts | 136° |
| 2026-05-08 08:23 | 52.76664 | 12.60640 | 6919 ft | 113 kts | 125° |
| 2026-05-08 08:23 | 52.76216 | 12.61672 | 6994 ft | 110 kts | 124° |
| 2026-05-08 08:23 | 52.75779 | 12.62746 | 7015 ft | 113 kts | 120° |
| 2026-05-08 08:23 | 52.75392 | 12.63871 | 7012 ft | 114 kts | 119° |
| 2026-05-08 08:24 | 52.75052 | 12.65035 | 7089 ft | 110 kts | 112° |
| 2026-05-08 08:24 | 52.74699 | 12.66216 | 7001 ft | 119 kts | 120° |
| 2026-05-08 08:24 | 52.74291 | 12.67388 | 7005 ft | 117 kts | 118° |
| 2026-05-08 08:24 | 52.73897 | 12.68566 | 6979 ft | 117 kts | 119° |
| 2026-05-08 08:25 | 52.73482 | 12.69719 | 6954 ft | 116 kts | 124° |
| 2026-05-08 08:25 | 52.73001 | 12.70805 | 6911 ft | 118 kts | 127° |
| 2026-05-08 08:25 | 52.72495 | 12.71916 | 6824 ft | 122 kts | 124° |
| 2026-05-08 08:25 | 52.72038 | 12.72953 | 6976 ft | 103 kts | 125° |
| 2026-05-08 08:26 | 52.71571 | 12.73935 | 6860 ft | 115 kts | 129° |
| 2026-05-08 08:26 | 52.71028 | 12.74920 | 6810 ft | 119 kts | 134° |
| 2026-05-08 08:26 | 52.70443 | 12.75893 | 6747 ft | 121 kts | 133° |
| 2026-05-08 08:26 | 52.69850 | 12.76900 | 6688 ft | 122 kts | 132° |
| 2026-05-08 08:27 | 52.69276 | 12.77951 | 6491 ft | 127 kts | 133° |
| 2026-05-08 08:27 | 52.68661 | 12.79016 | 6285 ft | 129 kts | 134° |
| 2026-05-08 08:27 | 52.68019 | 12.80084 | 6053 ft | 131 kts | 135° |
| 2026-05-08 08:27 | 52.67359 | 12.81084 | 5924 ft | 127 kts | 139° |
| 2026-05-08 08:28 | 52.66663 | 12.81976 | 5797 ft | 126 kts | 142° |
| 2026-05-08 08:28 | 52.65975 | 12.82866 | 5645 ft | 127 kts | 139° |
| 2026-05-08 08:28 | 52.65287 | 12.83846 | 5392 ft | 132 kts | 137° |
| 2026-05-08 08:28 | 52.64599 | 12.84801 | 5270 ft | 128 kts | 140° |
| 2026-05-08 08:29 | 52.63910 | 12.85698 | 5169 ft | 125 kts | 141° |
| 2026-05-08 08:29 | 52.63215 | 12.86594 | 4969 ft | 129 kts | 141° |
| 2026-05-08 08:29 | 52.62568 | 12.87575 | 4873 ft | 124 kts | 131° |
| 2026-05-08 08:29 | 52.61968 | 12.88650 | 4640 ft | 130 kts | 133° |
| 2026-05-08 08:30 | 52.61318 | 12.89625 | 4633 ft | 120 kts | 136° |
| 2026-05-08 08:30 | 52.60742 | 12.90502 | 4803 ft | 106 kts | 136° |
| 2026-05-08 08:30 | 52.59864 | 12.92408 | 4875 ft | 109 kts | 115° |
| 2026-05-08 08:31 | 52.59554 | 12.93542 | 4932 ft | 108 kts | 110° |
| 2026-05-08 08:31 | 52.59327 | 12.94704 | 4990 ft | 107 kts | 100° |
| 2026-05-08 08:31 | 52.59160 | 12.95900 | 5024 ft | 108 kts | 106° |
| 2026-05-08 08:31 | 52.58944 | 12.96940 | 5071 ft | 107 kts | 108° |
| 2026-05-08 08:32 | 52.58661 | 12.98080 | 5103 ft | 109 kts | 115° |
| 2026-05-08 08:32 | 52.58298 | 12.99175 | 5136 ft | 109 kts | 118° |
| 2026-05-08 08:32 | 52.57885 | 13.00257 | 5116 ft | 113 kts | 120° |
| 2026-05-08 08:32 | 52.57608 | 13.01416 | 5169 ft | 108 kts | 105° |
| 2026-05-08 08:33 | 52.57402 | 13.02652 | 5120 ft | 114 kts | 106° |
| 2026-05-08 08:33 | 52.57171 | 13.03891 | 5145 ft | 112 kts | 107° |
| 2026-05-08 08:33 | 52.56893 | 13.05095 | 5144 ft | 114 kts | 110° |
| 2026-05-08 08:33 | 52.56612 | 13.06347 | 5000 ft | 123 kts | 109° |
| 2026-05-08 08:34 | 52.56302 | 13.07667 | 4925 ft | 122 kts | 109° |
| 2026-05-08 08:34 | 52.55992 | 13.08976 | 4871 ft | 120 kts | 111° |
| 2026-05-08 08:34 | 52.55683 | 13.10179 | 4922 ft | 114 kts | 111° |
| 2026-05-08 08:34 | 52.55373 | 13.11434 | 4826 ft | 119 kts | 111° |
| 2026-05-08 08:35 | 52.55075 | 13.12643 | 4919 ft | 110 kts | 110° |
| 2026-05-08 08:35 | 52.54836 | 13.13875 | 4855 ft | 116 kts | 104° |
| 2026-05-08 08:35 | 52.54636 | 13.15176 | 4812 ft | 115 kts | 102° |
| 2026-05-08 08:35 | 52.54404 | 13.16466 | 4633 ft | 126 kts | 107° |
| 2026-05-08 08:36 | 52.54152 | 13.17815 | 4604 ft | 119 kts | 109° |
| 2026-05-08 08:36 | 52.53837 | 13.19095 | 4449 ft | 124 kts | 112° |
| 2026-05-08 08:36 | 52.53495 | 13.20376 | 4216 ft | 124 kts | 112° |
| 2026-05-08 08:36 | 52.53128 | 13.21657 | 3980 ft | 124 kts | 117° |
| 2026-05-08 08:37 | 52.52701 | 13.22868 | 3837 ft | 119 kts | 118° |
| 2026-05-08 08:37 | 52.52247 | 13.23985 | 3693 ft | 118 kts | 128° |
| 2026-05-08 08:37 | 52.51632 | 13.24887 | 3562 ft | 118 kts | 144° |
| 2026-05-08 08:37 | 52.50948 | 13.25625 | 3402 ft | 119 kts | 147° |
| 2026-05-08 08:38 | 52.50225 | 13.26305 | 3215 ft | 120 kts | 151° |
| 2026-05-08 08:38 | 52.49470 | 13.26821 | 3125 ft | 117 kts | 161° |
| 2026-05-08 08:38 | 52.48646 | 13.27035 | 2948 ft | 121 kts | 175° |
| 2026-05-08 08:38 | 52.47817 | 13.27086 | 2860 ft | 117 kts | 177° |
| 2026-05-08 08:39 | 52.47016 | 13.27210 | 2717 ft | 115 kts | 158° |
| 2026-05-08 08:39 | 52.46387 | 13.27936 | 2599 ft | 110 kts | 130° |
| 2026-05-08 08:39 | 52.45840 | 13.28877 | 2419 ft | 115 kts | 131° |
| 2026-05-08 08:39 | 52.45298 | 13.29791 | 2326 ft | 113 kts | 132° |
| 2026-05-08 08:40 | 52.44760 | 13.30762 | 2144 ft | 114 kts | 129° |
| 2026-05-08 08:40 | 52.44234 | 13.31719 | 2113 ft | 104 kts | 130° |
| 2026-05-08 08:40 | 52.43879 | 13.32646 | 2210 ft | 98 kts | 113° |
| 2026-05-08 08:40 | 52.43641 | 13.33729 | 2280 ft | 103 kts | 106° |
| 2026-05-08 08:41 | 52.43468 | 13.34895 | 2325 ft | 109 kts | 103° |
| 2026-05-08 08:41 | 52.43315 | 13.36116 | 2390 ft | 108 kts | 97° |
| 2026-05-08 08:41 | 52.43257 | 13.37299 | 2464 ft | 99 kts | 94° |
| 2026-05-08 08:41 | 52.43190 | 13.38454 | 2375 ft | 105 kts | 96° |
| 2026-05-08 08:42 | 52.43112 | 13.39668 | 2257 ft | 107 kts | 94° |
| 2026-05-08 08:42 | 52.43081 | 13.40864 | 2211 ft | 103 kts | 92° |
| 2026-05-08 08:42 | 52.42999 | 13.42020 | 2188 ft | 102 kts | 103° |
| 2026-05-08 08:42 | 52.42807 | 13.43124 | 2159 ft | 100 kts | 103° |
| 2026-05-08 08:43 | 52.42637 | 13.44219 | 2133 ft | 101 kts | 102° |
| 2026-05-08 08:43 | 52.42468 | 13.45325 | 2118 ft | 102 kts | 106° |
| 2026-05-08 08:43 | 52.42218 | 13.46374 | 2137 ft | 100 kts | 125° |
| 2026-05-08 08:43 | 52.41518 | 13.46647 | 1808 ft | 119 kts | 200° |
| 2026-05-08 08:44 | 52.40863 | 13.45847 | 1551 ft | 113 kts | 221° |
| 2026-05-08 08:44 | 52.40304 | 13.44979 | 1372 ft | 105 kts | 223° |
| 2026-05-08 08:44 | 52.39838 | 13.44193 | 1283 ft | 91 kts | 225° |
| 2026-05-08 08:44 | 52.39350 | 13.43560 | 1174 ft | 90 kts | 211° |
| 2026-05-08 08:45 | 52.38809 | 13.43051 | 1082 ft | 84 kts | 203° |
| 2026-05-08 08:45 | 52.38260 | 13.42890 | 1024 ft | 79 kts | 176° |
| 2026-05-08 08:45 | 52.37721 | 13.43039 | 883 ft | 83 kts | 160° |
| 2026-05-08 08:45 | 52.37265 | 13.43632 | 717 ft | 83 kts | 114° |
| 2026-05-08 08:46 | 52.37010 | 13.44421 | 643 ft | 76 kts | 114° |
| 2026-05-08 08:46 | 52.36781 | 13.45241 | 506 ft | 79 kts | 111° |
| 2026-05-08 08:46 | 52.36590 | 13.46063 | 436 ft | 75 kts | 109° |
| 2026-05-08 08:46 | 52.36497 | 13.46886 | 391 ft | 75 kts | 91° |
| 2026-05-08 08:47 | 52.36590 | 13.47726 | 287 ft | 77 kts | 70° |
| 2026-05-08 08:47 | 52.36779 | 13.48538 | 206 ft | 76 kts | 69° |
| 2026-05-08 08:47 | 52.36963 | 13.49328 | 147 ft | 65 kts | 71° |
| 2026-05-08 08:47 | 52.37097 | 13.49864 | 154 ft | 40 kts | 69° |
| 2026-05-08 08:48 | 52.37169 | 13.50259 | 155 ft | 31 kts | 113° |
| 2026-05-08 08:48 | 52.37062 | 13.50185 | 156 ft | 19 kts | 241° |
| 2026-05-08 08:48 | 52.37001 | 13.50091 | 155 ft | 9 kts | 216° |
| 2026-05-08 08:48 | 52.36969 | 13.50074 | 155 ft | 9 kts | 174° |
| 2026-05-08 08:49 | 52.36939 | 13.50209 | 153 ft | 19 kts | 68° |
| 2026-05-08 08:49 | 52.36996 | 13.50445 | 154 ft | 24 kts | 70° |
| 2026-05-08 08:49 | 52.37055 | 13.50700 | 150 ft | 23 kts | 68° |
| 2026-05-08 08:49 | 52.37114 | 13.50946 | 149 ft | 23 kts | 69° |
| 2026-05-08 08:50 | 52.37168 | 13.51173 | 153 ft | 20 kts | 67° |
| 2026-05-08 08:50 | 52.37218 | 13.51385 | 155 ft | 21 kts | 66° |
| 2026-05-08 08:50 | 52.37270 | 13.51608 | 155 ft | 22 kts | 69° |
| 2026-05-08 08:50 | 52.37325 | 13.51842 | 156 ft | 18 kts | 70° |
| 2026-05-08 08:51 | 52.37340 | 13.52034 | 155 ft | 16 kts | 129° |
| 2026-05-08 08:51 | 52.37249 | 13.52108 | 156 ft | 16 kts | 146° |
| 2026-05-08 08:51 | 52.37163 | 13.52153 | 158 ft | 8 kts | 217° |
| 2026-05-08 08:51 | 52.37137 | 13.52054 | 157 ft | 6 kts | 249° |
| 2026-05-08 08:52 | 52.37136 | 13.52051 | 157 ft | 0 kts | 248° |